Time;durP1;ratioP1;P1;durP2;ratioP2;P2;SDS_P1;SDS_P2;PMS_P1;PMS_P2;Temp;Humidity;BMP_temperature;BMP_pressure;BME280_temperature;BME280_humidity;BME280_pressure;Samples;Min_cycle;Max_cycle;Signal;HPM_P1;HPM_P2
2023/02/13 00:00:17;;;;;;;51.40;19.30;;;;;;;4.43;100.00;100776.48;135503;1279;22543;-64
2023/02/13 00:03:39;;;;;;;49.30;18.50;;;;;;;4.37;100.00;100772.70;135572;1279;22534;-64
2023/02/13 00:06:42;;;;;;;46.00;18.00;;;;;;;4.41;100.00;100768.36;135607;1279;22553;-66
2023/02/13 00:09:44;;;;;;;53.20;19.60;;;;;;;4.36;100.00;100763.17;135559;1279;22532;-64
2023/02/13 00:12:46;;;;;;;49.50;18.40;;;;;;;4.38;100.00;100762.31;135561;1279;22546;-62
2023/02/13 00:15:49;;;;;;;46.30;19.00;;;;;;;4.40;100.00;100761.78;135568;1279;22534;-62
2023/02/13 00:18:51;;;;;;;47.80;17.60;;;;;;;4.45;100.00;100756.38;135599;1279;24852;-63
2023/02/13 00:21:54;;;;;;;;;;;;;;;4.43;100.00;100755.52;135600;1279;22551;-63
2023/02/13 00:24:56;;;;;;;53.40;19.40;;;;;;;4.39;100.00;100755.37;135581;1279;23013;-61
2023/02/13 00:27:58;;;;;;;52.20;20.50;;;;;;;4.39;100.00;100751.04;135553;1268;22583;-61
2023/02/13 00:31:01;;;;;;;51.30;19.00;;;;;;;4.39;100.00;100740.83;135578;1279;22563;-61
2023/02/13 00:34:03;;;;;;;49.20;19.50;;;;;;;4.41;100.00;100738.73;135598;1279;22533;-62
2023/02/13 00:37:06;;;;;;;55.30;20.70;;;;;;;4.43;100.00;100736.64;135591;1262;22660;-63
2023/02/13 00:40:08;;;;;;;53.10;22.30;;;;;;;4.41;100.00;100739.93;135570;1279;22621;-62
2023/02/13 00:43:10;;;;;;;56.10;22.10;;;;;;;4.39;100.00;100729.39;135591;1279;22646;-64
2023/02/13 00:46:13;;;;;;;59.80;24.00;;;;;;;4.41;100.00;100724.54;135568;1279;22638;-65
2023/02/13 00:49:15;;;;;;;55.40;21.50;;;;;;;4.41;100.00;100714.65;135560;1269;22567;-61
2023/02/13 00:52:18;;;;;;;57.40;20.90;;;;;;;4.41;100.00;100714.48;135577;1279;22643;-62
2023/02/13 00:55:20;;;;;;;50.00;21.30;;;;;;;4.38;100.00;100712.25;135540;1279;22570;-62
2023/02/13 00:58:23;;;;;;;53.90;22.80;;;;;;;4.37;100.00;100713.11;135556;1279;22574;-63
2023/02/13 01:01:25;;;;;;;53.90;21.90;;;;;;;4.38;100.00;100706.88;135519;1279;22540;-62
2023/02/13 01:04:28;;;;;;;54.30;21.40;;;;;;;4.41;100.00;100711.19;135576;1279;22574;-61
2023/02/13 01:07:30;;;;;;;50.30;21.00;;;;;;;4.44;100.00;100708.92;135533;1279;22649;-62
2023/02/13 01:10:32;;;;;;;56.70;23.80;;;;;;;4.44;100.00;100706.67;135478;1279;22609;-62
2023/02/13 01:13:35;;;;;;;59.90;23.10;;;;;;;4.49;100.00;100709.07;135499;1279;22608;-61
2023/02/13 01:16:37;;;;;;;57.30;23.80;;;;;;;4.55;100.00;100704.17;135553;1279;22543;-61
2023/02/13 01:19:40;;;;;;;60.80;24.10;;;;;;;4.62;100.00;100702.58;135589;1279;24226;-63
2023/02/13 01:22:43;;;;;;;55.50;22.60;;;;;;;4.73;100.00;100701.29;135557;1279;22539;-64
2023/02/13 01:25:45;;;;;;;53.30;23.50;;;;;;;4.73;100.00;100699.73;135549;1279;25447;-63
2023/02/13 01:28:48;;;;;;;59.00;24.70;;;;;;;4.73;100.00;100700.78;135588;1279;22544;-62
2023/02/13 01:31:50;;;;;;;60.30;23.10;;;;;;;4.71;100.00;100704.77;135560;1269;22539;-63
2023/02/13 01:34:53;;;;;;;59.50;23.20;;;;;;;4.70;100.00;100695.08;135590;1279;22573;-66
2023/02/13 01:37:55;;;;;;;66.90;23.50;;;;;;;4.80;100.00;100690.30;135582;1271;22536;-63
2023/02/13 01:40:57;;;;;;;53.30;23.10;;;;;;;4.83;100.00;100694.61;135605;1279;24221;-64
2023/02/13 01:44:00;;;;;;;59.60;25.30;;;;;;;4.81;100.00;100693.77;135549;1279;22564;-64
2023/02/13 01:47:02;;;;;;;67.50;25.10;;;;;;;4.80;100.00;100690.13;135585;1279;22545;-63
2023/02/13 01:50:05;;;;;;;61.00;24.00;;;;;;;4.74;100.00;100693.83;135591;1279;22539;-63
2023/02/13 01:53:07;;;;;;;53.50;23.10;;;;;;;4.76;100.00;100695.54;135595;1279;24197;-62
2023/02/13 01:56:09;;;;;;;54.50;23.70;;;;;;;4.79;100.00;100695.52;135580;1279;22540;-61
2023/02/13 01:59:12;;;;;;;58.60;22.90;;;;;;;4.88;100.00;100695.46;135605;1279;22678;-63
2023/02/13 02:02:14;;;;;;;55.10;22.30;;;;;;;4.88;100.00;100695.47;135548;1279;22559;-61
2023/02/13 02:05:17;;;;;;;;;;;;;;;4.85;100.00;100695.48;135560;1279;22647;-61
2023/02/13 02:08:19;;;;;;;59.70;23.70;;;;;;;4.78;100.00;100694.14;135598;1279;22550;-62
2023/02/13 02:11:21;;;;;;;61.20;23.70;;;;;;;4.78;100.00;100692.93;135584;1279;22555;-61
2023/02/13 02:14:24;;;;;;;55.60;24.70;;;;;;;4.81;100.00;100686.84;135576;1279;22648;-63
2023/02/13 02:17:26;;;;;;;60.30;24.60;;;;;;;4.87;100.00;100683.17;135613;1279;25393;-61
2023/02/13 02:20:29;;;;;;;57.30;24.00;;;;;;;4.91;100.00;100687.29;135537;1279;22568;-62
2023/02/13 02:23:31;;;;;;;59.30;25.20;;;;;;;4.89;100.00;100687.98;135564;1277;22594;-60
2023/02/13 02:26:34;;;;;;;63.80;26.60;;;;;;;4.93;100.00;100691.25;135614;1279;22556;-63
2023/02/13 02:29:36;;;;;;;61.30;25.40;;;;;;;4.96;100.00;100692.27;135563;1279;22536;-62
2023/02/13 02:32:38;;;;;;;58.10;23.90;;;;;;;4.93;100.00;100691.42;135582;1279;22557;-63
2023/02/13 02:35:41;;;;;;;58.60;23.20;;;;;;;4.94;100.00;100688.30;135575;1279;23146;-64
2023/02/13 02:38:43;;;;;;;59.60;23.30;;;;;;;4.97;100.00;100680.65;135603;1279;22541;-60
2023/02/13 02:41:46;;;;;;;60.90;24.50;;;;;;;4.91;100.00;100683.81;135569;1279;22543;-62
2023/02/13 02:44:48;;;;;;;60.90;25.20;;;;;;;4.88;100.00;100682.98;135419;1279;279525;-62
2023/02/13 02:51:10;;;;;;;60.60;24.20;;;;;;;4.95;100.00;100682.56;135596;1276;23369;-62
2023/02/13 03:06:09;;;;;;;59.80;25.80;;;;;;;4.85;100.00;100679.02;135587;1279;22550;-63
2023/02/13 03:07:32;;;;;;;58.50;22.70;;;;;;;4.85;100.00;100693.23;135580;1279;22535;-61
2023/02/13 03:13:54;;;;;;;57.70;22.40;;;;;;;4.89;100.00;100699.27;135612;1279;22751;-65
2023/02/13 03:23:49;;;;;;;60.30;24.60;;;;;;;4.82;100.00;100708.33;135609;1279;22551;-62
2023/02/13 03:26:51;;;;;;;55.80;22.70;;;;;;;4.84;100.00;100703.29;135606;1279;22532;-64
2023/02/13 03:30:10;;;;;;;55.50;22.30;;;;;;;4.84;100.00;100710.75;135606;1279;22540;-62
2023/02/13 03:33:12;;;;;;;58.40;23.70;;;;;;;4.82;100.00;100715.27;135557;1279;23402;-62
2023/02/13 03:39:35;;;;;;;51.50;23.60;;;;;;;4.76;100.00;100689.48;135614;1279;22615;-65
2023/02/13 03:42:37;;;;;;;58.40;24.60;;;;;;;4.78;100.00;100692.77;135483;1279;22575;-61
2023/02/13 03:45:52;;;;;;;55.60;23.20;;;;;;;4.78;100.00;100689.64;135579;1270;22531;-64
2023/02/13 03:52:15;;;;;;;52.70;23.30;;;;;;;4.81;100.00;100691.35;135609;1279;22547;-63
2023/02/13 04:01:57;;;;;;;49.90;19.80;;;;;;;4.77;100.00;100684.27;135606;1279;25330;-63
2023/02/13 04:04:59;;;;;;;47.80;19.80;;;;;;;4.83;100.00;100683.37;135644;1279;22560;-62
2023/02/13 04:08:02;;;;;;;47.10;20.00;;;;;;;4.87;100.00;100687.84;135581;1279;22543;-64
2023/02/13 04:11:04;;;;;;;52.40;21.30;;;;;;;4.92;100.00;100683.45;135603;1279;22541;-63
2023/02/13 04:14:07;;;;;;;51.90;21.60;;;;;;;4.91;100.00;100681.73;135600;1279;22531;-63
2023/02/13 04:17:09;;;;;;;50.20;20.50;;;;;;;4.88;100.00;100682.11;135622;1279;22612;-63
2023/02/13 04:20:11;;;;;;;52.80;21.60;;;;;;;4.96;100.00;100681.00;135615;1269;22716;-63
2023/02/13 04:23:14;;;;;;;50.00;21.00;;;;;;;4.91;100.00;100681.57;135603;1269;24246;-64
2023/02/13 04:26:16;;;;;;;48.30;20.10;;;;;;;4.92;100.00;100676.02;135597;1279;23243;-64
2023/02/13 04:29:19;;;;;;;46.20;19.70;;;;;;;4.89;100.00;100676.38;135569;1279;22534;-62
2023/02/13 04:32:21;;;;;;;45.70;17.80;;;;;;;4.91;100.00;100673.61;135607;1279;22548;-64
2023/02/13 04:35:24;;;;;;;50.30;19.40;;;;;;;4.84;100.00;100675.73;135596;1279;22639;-64
2023/02/13 04:38:26;;;;;;;42.00;16.70;;;;;;;4.89;100.00;100678.45;135629;1279;22548;-65
2023/02/13 04:41:28;;;;;;;44.30;17.30;;;;;;;4.84;100.00;100684.56;135566;1277;22586;-62
2023/02/13 04:44:31;;;;;;;51.80;20.30;;;;;;;4.88;100.00;100691.65;135593;1279;22558;-62
2023/02/13 04:47:33;;;;;;;44.70;16.70;;;;;;;4.89;100.00;100687.48;135624;1279;22558;-63
2023/02/13 04:50:36;;;;;;;39.70;15.70;;;;;;;4.86;100.00;100688.02;135556;1279;22551;-62
2023/02/13 04:53:38;;;;;;;41.30;15.80;;;;;;;4.90;100.00;100692.15;135562;1279;22552;-62
2023/02/13 04:56:40;;;;;;;40.30;15.40;;;;;;;4.99;100.00;100693.81;135608;1279;23715;-61
2023/02/13 04:59:43;;;;;;;39.90;15.10;;;;;;;5.04;100.00;100694.98;135544;1279;22539;-62
2023/02/13 05:02:45;;;;;;;38.10;15.40;;;;;;;5.09;100.00;100691.64;135544;1279;22547;-63
2023/02/13 05:05:48;;;;;;;39.50;15.30;;;;;;;5.17;100.00;100696.77;135564;1279;25345;-63
2023/02/13 05:08:50;;;;;;;35.30;14.50;;;;;;;5.19;100.00;100701.09;135590;1279;22536;-65
2023/02/13 05:11:52;;;;;;;40.30;15.70;;;;;;;5.22;100.00;100704.02;135544;1279;22663;-63
2023/02/13 05:14:55;;;;;;;38.70;14.40;;;;;;;5.22;100.00;100703.86;135525;1279;22539;-64
2023/02/13 05:17:57;;;;;;;37.90;14.50;;;;;;;5.35;100.00;100705.27;135581;1279;22634;-63
2023/02/13 05:24:20;;;;;;;47.30;17.40;;;;;;;5.37;100.00;100698.68;135549;1279;24227;-62
2023/02/13 05:27:22;;;;;;;49.40;18.80;;;;;;;5.32;100.00;100703.75;135546;1279;25472;-62
2023/02/13 05:30:25;;;;;;;45.10;17.60;;;;;;;5.32;100.00;100708.61;135486;1279;22547;-64
2023/02/13 05:33:27;;;;;;;43.10;16.00;;;;;;;5.22;100.00;100708.52;135485;1261;22787;-62
2023/02/13 05:36:30;;;;;;;44.60;16.30;;;;;;;5.22;100.00;100703.33;135586;1279;22533;-61
2023/02/13 05:39:32;;;;;;;42.00;16.30;;;;;;;5.24;100.00;100701.58;135523;1279;22543;-62
2023/02/13 05:42:35;;;;;;;40.90;15.20;;;;;;;5.21;100.00;100700.73;135495;1261;22561;-63
2023/02/13 05:45:37;;;;;;;41.90;15.90;;;;;;;5.22;100.00;100707.83;135597;1279;22547;-63
2023/02/13 05:48:39;;;;;;;40.90;16.20;;;;;;;5.22;100.00;100715.98;135539;1279;25250;-62
2023/02/13 05:51:42;;;;;;;43.10;15.90;;;;;;;5.24;100.00;100718.23;135556;1279;22591;-63
2023/02/13 05:54:44;;;;;;;44.10;17.70;;;;;;;5.23;100.00;100718.93;135522;1279;22586;-65
2023/02/13 05:57:47;;;;;;;39.00;15.40;;;;;;;5.25;100.00;100719.25;135572;1279;22533;-63
2023/02/13 06:00:49;;;;;;;40.10;16.00;;;;;;;5.22;100.00;100724.67;135543;1261;22546;-62
2023/02/13 06:03:51;;;;;;;42.90;15.50;;;;;;;5.31;100.00;100725.45;135545;1279;22630;-61
2023/02/13 06:06:54;;;;;;;44.80;16.80;;;;;;;5.32;100.00;100725.79;135567;1279;22551;-62
2023/02/13 06:09:58;;;;;;;42.40;15.90;;;;;;;5.32;100.00;100719.88;135605;1279;22621;-62
2023/02/13 06:13:00;;;;;;;44.30;15.60;;;;;;;5.27;100.00;100717.16;135547;1279;22560;-61
2023/02/13 06:16:03;;;;;;;49.70;17.10;;;;;;;5.33;100.00;100712.59;135515;1279;22543;-62
2023/02/13 06:19:05;;;;;;;43.70;15.90;;;;;;;5.44;100.00;100710.39;135592;1279;22575;-62
2023/02/13 06:22:07;;;;;;;43.20;15.70;;;;;;;5.39;100.00;100712.88;135526;1279;22546;-62
2023/02/13 06:25:10;;;;;;;41.30;15.40;;;;;;;5.36;100.00;100714.98;135564;1279;22533;-61
2023/02/13 06:28:12;;;;;;;40.20;16.00;;;;;;;5.33;100.00;100717.61;135565;1279;25904;-62
2023/02/13 06:31:15;;;;;;;42.10;16.90;;;;;;;5.29;100.00;100716.27;135579;1278;22659;-65
2023/02/13 06:34:17;;;;;;;48.50;18.30;;;;;;;5.27;100.00;100714.21;135591;1279;24272;-63
2023/02/13 06:37:20;;;;;;;45.00;18.60;;;;;;;5.27;100.00;100718.72;135551;1279;22560;-65
2023/02/13 06:40:22;;;;;;;39.70;16.10;;;;;;;5.39;100.00;100723.99;135570;1279;22566;-63
2023/02/13 06:43:24;;;;;;;39.30;16.50;;;;;;;5.34;100.00;100725.43;135584;1260;22620;-62
2023/02/13 06:46:27;;;;;;;47.10;16.90;;;;;;;5.33;100.00;100731.00;135591;1279;22550;-65
2023/02/13 06:49:29;;;;;;;41.10;16.20;;;;;;;5.40;100.00;100727.27;135544;1279;22553;-64
2023/02/13 06:52:32;;;;;;;44.70;17.50;;;;;;;5.39;100.00;100717.58;135574;1279;22560;-64
2023/02/13 06:55:34;;;;;;;50.80;20.60;;;;;;;5.43;100.00;100714.59;135545;1279;22541;-63
2023/02/13 06:58:38;;;;;;;;;;;;;;;5.47;100.00;100710.89;135570;1279;22525;-63
2023/02/13 07:01:41;;;;;;;45.30;18.20;;;;;;;5.56;100.00;100704.90;135519;1279;22536;-63
2023/02/13 07:04:43;;;;;;;51.40;20.10;;;;;;;5.54;100.00;100703.37;135559;1279;22547;-64
2023/02/13 07:07:46;;;;;;;46.40;18.40;;;;;;;5.66;100.00;100700.11;135428;1279;22548;-61
2023/02/13 07:10:48;;;;;;;44.60;17.60;;;;;;;5.74;100.00;100700.71;135590;1279;22611;-60
2023/02/13 07:13:51;;;;;;;46.90;19.40;;;;;;;5.76;100.00;100696.02;135545;1279;24263;-61
2023/02/13 07:16:53;;;;;;;43.00;18.10;;;;;;;5.83;100.00;100694.37;135550;1279;22532;-61
2023/02/13 07:19:55;;;;;;;40.70;16.90;;;;;;;5.84;100.00;100696.95;135560;1279;22599;-64
2023/02/13 07:22:58;;;;;;;43.00;17.60;;;;;;;5.87;100.00;100707.17;135548;1279;22558;-64
2023/02/13 07:26:01;;;;;;;44.40;17.80;;;;;;;5.94;100.00;100704.48;135587;1279;22554;-61
2023/02/13 07:29:04;;;;;;;41.60;16.70;;;;;;;5.98;100.00;100704.46;135563;1279;22550;-63
2023/02/13 07:32:07;;;;;;;41.60;16.60;;;;;;;6.05;100.00;100709.95;135596;1261;23145;-62
2023/02/13 07:35:10;;;;;;;41.90;16.80;;;;;;;6.16;100.00;100707.91;135554;1279;22551;-61
2023/02/13 07:38:12;;;;;;;39.40;16.50;;;;;;;6.23;100.00;100705.90;135601;1279;22570;-63
2023/02/13 07:41:15;;;;;;;41.40;16.20;;;;;;;6.30;100.00;100707.90;135599;1260;22540;-61
2023/02/13 07:44:17;;;;;;;37.90;14.90;;;;;;;6.31;100.00;100707.20;135569;1279;22552;-62
2023/02/13 07:47:20;;;;;;;39.40;15.50;;;;;;;6.35;100.00;100705.73;135588;1279;22546;-63
2023/02/13 07:50:22;;;;;;;40.10;15.80;;;;;;;6.43;100.00;100698.85;135561;1279;22633;-64
2023/02/13 07:53:25;;;;;;;36.20;14.80;;;;;;;6.68;100.00;100704.05;135567;1279;22548;-62
2023/02/13 07:56:27;;;;;;;39.40;16.10;;;;;;;6.73;100.00;100698.07;135601;1279;22554;-65
2023/02/13 07:59:29;;;;;;;42.60;17.00;;;;;;;6.70;100.00;100697.77;135589;1279;22613;-62
2023/02/13 08:02:32;;;;;;;40.80;16.30;;;;;;;6.73;100.00;100694.59;135573;1279;25482;-62
2023/02/13 08:05:34;;;;;;;36.60;15.00;;;;;;;6.75;100.00;100690.91;135551;1279;22557;-61
2023/02/13 08:08:37;;;;;;;40.70;15.80;;;;;;;6.78;100.00;100693.30;135572;1279;22664;-64
2023/02/13 08:11:55;;;;;;;43.00;16.10;;;;;;;6.83;100.00;100692.71;135571;1279;22659;-61
2023/02/13 08:14:58;;;;;;;36.10;14.70;;;;;;;6.86;100.00;100688.14;135605;1279;22540;-63
2023/02/13 08:18:00;;;;;;;36.60;13.80;;;;;;;6.93;100.00;100687.32;135581;1279;22589;-61
2023/02/13 08:21:03;;;;;;;35.70;14.50;;;;;;;6.89;100.00;100681.98;135630;1279;22592;-61
2023/02/13 08:24:05;;;;;;;34.20;14.40;;;;;;;6.85;100.00;100681.36;135638;1279;22561;-61
2023/02/13 08:27:07;;;;;;;36.20;14.10;;;;;;;6.86;100.00;100682.73;135606;1279;22641;-64
2023/02/13 08:30:10;;;;;;;35.50;13.70;;;;;;;6.93;100.00;100691.14;135584;1279;22539;-62
2023/02/13 08:33:12;;;;;;;41.80;14.90;;;;;;;6.93;100.00;100694.98;135575;1279;22563;-60
2023/02/13 08:36:15;;;;;;;36.80;14.00;;;;;;;6.95;100.00;100689.55;135598;1279;22539;-62
2023/02/13 08:39:17;;;;;;;37.10;14.20;;;;;;;7.18;100.00;100690.72;135563;1279;22568;-62
2023/02/13 08:42:19;;;;;;;38.20;14.10;;;;;;;7.31;100.00;100695.73;135611;1279;22544;-62
2023/02/13 08:45:22;;;;;;;36.90;14.60;;;;;;;7.36;100.00;100703.30;135598;1274;22560;-61
2023/02/13 08:48:24;;;;;;;33.20;13.10;;;;;;;7.48;100.00;100699.59;135604;1279;23000;-65
2023/02/13 08:55:05;;;;;;;38.20;14.80;;;;;;;7.46;100.00;100696.86;135619;1279;22532;-62
2023/02/13 08:58:07;;;;;;;39.20;15.80;;;;;;;7.59;100.00;100691.56;135601;1279;22543;-62
2023/02/13 09:01:10;;;;;;;40.30;15.60;;;;;;;7.83;100.00;100685.88;135572;1279;22562;-63
2023/02/13 09:04:14;;;;;;;38.90;16.30;;;;;;;8.01;100.00;100684.13;126508;1279;1003801;-62
2023/02/13 09:07:17;;;;;;;44.00;16.60;;;;;;;8.14;100.00;100680.20;67743;1279;1016294;-60
2023/02/13 09:10:19;;;;;;;36.00;14.20;;;;;;;8.30;100.00;100680.90;67727;1279;1016216;-60
2023/02/13 09:13:21;;;;;;;36.20;14.80;;;;;;;8.28;100.00;100685.12;67712;1279;1017897;-60
2023/02/13 09:16:24;;;;;;;36.70;13.60;;;;;;;8.13;100.00;100689.08;67728;1279;1016376;-61
2023/02/13 09:19:26;;;;;;;33.60;13.30;;;;;;;8.08;100.00;100693.04;67729;1279;1016552;-60
2023/02/13 09:22:29;;;;;;;35.40;13.70;;;;;;;8.29;100.00;100688.77;67749;1279;1016104;-60
2023/02/13 09:25:31;;;;;;;;;;;;;;;8.37;100.00;100683.71;67720;1279;1016462;-59
2023/02/13 09:28:34;;;;;;;33.80;11.70;;;;;;;8.30;100.00;100690.14;67720;1279;1016417;-60
2023/02/13 09:31:36;;;;;;;33.90;12.40;;;;;;;8.09;100.00;100683.08;67739;1279;1016845;-60
2023/02/13 09:34:39;;;;;;;31.50;11.70;;;;;;;8.07;100.00;100672.85;67764;1279;1016354;-61
2023/02/13 09:37:41;;;;;;;31.90;12.90;;;;;;;8.16;100.00;100663.92;67747;1279;1016364;-60
2023/02/13 09:40:44;;;;;;;35.30;13.80;;;;;;;8.36;100.00;100661.05;67751;1279;1016490;-60
2023/02/13 09:43:46;;;;;;;33.30;13.40;;;;;;;8.41;100.00;100663.75;67736;1279;1016342;-60
2023/02/13 09:46:49;;;;;;;35.80;12.90;;;;;;;8.36;100.00;100662.30;67741;1279;1016473;-60
2023/02/13 09:49:51;;;;;;;31.90;12.40;;;;;;;8.28;100.00;100669.09;67766;1279;1016699;-60
2023/02/13 09:52:54;;;;;;;33.50;12.80;;;;;;;8.21;100.00;100663.48;67726;1279;1016362;-60
2023/02/13 09:55:56;;;;;;;37.10;15.20;;;;;;;8.32;100.00;100660.11;67729;1279;1018091;-60
2023/02/13 09:58:59;;;;;;;33.90;13.40;;;;;;;8.40;100.00;100654.34;67740;1279;1016308;-59
2023/02/13 10:02:02;;;;;;;34.40;12.80;;;;;;;8.55;100.00;100643.75;67798;1279;1016321;-60
2023/02/13 10:05:05;;;;;;;32.00;12.20;;;;;;;8.57;100.00;100640.22;67788;1279;1016429;-60
2023/02/13 10:08:08;;;;;;;39.80;16.00;;;;;;;8.44;100.00;100641.55;67770;1279;1016426;-61
2023/02/13 10:11:10;;;;;;;;;;;;;;;8.56;100.00;100639.02;67737;1279;1017269;-60
2023/02/13 10:14:12;;;;;;;35.90;13.80;;;;;;;8.57;100.00;100636.38;67773;1279;1016205;-60
2023/02/13 10:17:15;;;;;;;34.90;13.80;;;;;;;8.49;100.00;100630.45;67785;1279;1016233;-60
2023/02/13 10:20:17;;;;;;;36.30;13.00;;;;;;;8.39;100.00;100627.69;67780;1279;1016159;-60
2023/02/13 10:23:20;;;;;;;31.10;10.90;;;;;;;8.34;100.00;100627.65;67754;1279;1016110;-60
2023/02/13 10:26:22;;;;;;;32.30;12.10;;;;;;;8.26;100.00;100621.73;67739;1279;1016922;-60
2023/02/13 10:32:44;;;;;;;35.10;13.90;;;;;;;8.00;100.00;100623.52;67707;1279;1018337;-61
2023/02/13 10:35:47;;;;;;;33.10;12.80;;;;;;;7.90;100.00;100625.99;67755;1279;1016407;-61
2023/02/13 10:38:49;;;;;;;31.50;12.60;;;;;;;7.81;100.00;100628.61;67787;1279;1015950;-61
2023/02/13 10:41:52;;;;;;;30.70;11.00;;;;;;;7.62;100.00;100626.56;67777;1279;1016505;-62
2023/02/13 10:44:54;;;;;;;32.70;12.60;;;;;;;7.56;100.00;100630.86;67736;1279;1016227;-61
2023/02/13 10:47:57;;;;;;;34.00;12.60;;;;;;;7.48;100.00;100628.58;67705;1279;1016082;-61
2023/02/13 10:50:59;;;;;;;32.60;13.50;;;;;;;7.50;100.00;100633.41;67785;1279;1016389;-61
2023/02/13 10:54:01;;;;;;;34.60;13.00;;;;;;;7.48;100.00;100633.11;67808;1279;1016382;-61
2023/02/13 10:57:04;;;;;;;37.80;12.60;;;;;;;7.50;100.00;100633.08;67750;1279;1016212;-62
2023/02/13 11:00:06;;;;;;;34.00;11.70;;;;;;;7.54;100.00;100633.34;67713;1279;1016471;-62
2023/02/13 11:03:09;;;;;;;;;;;;;;;7.43;100.00;100631.63;67777;1279;1016830;-61
2023/02/13 11:06:12;;;;;;;30.60;10.50;;;;;;;7.46;100.00;100633.48;67779;1279;1016457;-62
2023/02/13 11:09:14;;;;;;;30.20;10.10;;;;;;;7.56;100.00;100624.95;67753;1279;1017768;-62
2023/02/13 11:12:16;;;;;;;25.00;8.10;;;;;;;7.59;100.00;100626.63;67717;1279;1016227;-61
2023/02/13 11:15:19;;;;;;;24.90;7.90;;;;;;;7.71;100.00;100623.77;67736;1279;1016418;-62
2023/02/13 11:18:21;;;;;;;23.10;6.70;;;;;;;7.67;100.00;100627.17;67762;1279;1016079;-61
2023/02/13 11:21:24;;;;;;;23.10;7.10;;;;;;;7.68;100.00;100620.70;67762;1279;1016493;-61
2023/02/13 11:24:26;;;;;;;23.00;6.70;;;;;;;7.64;100.00;100621.83;67727;1279;1016254;-61
2023/02/13 11:27:29;;;;;;;19.90;6.10;;;;;;;7.65;100.00;100619.20;67751;1279;1017620;-62
2023/02/13 11:30:31;;;;;;;21.30;6.70;;;;;;;7.63;100.00;100616.62;67749;1279;1016689;-62
2023/02/13 11:33:33;;;;;;;21.40;6.80;;;;;;;7.80;100.00;100623.08;67797;1279;1016759;-61
2023/02/13 11:36:36;;;;;;;21.20;6.80;;;;;;;8.16;100.00;100624.20;67771;1279;1016308;-61
2023/02/13 11:39:38;;;;;;;21.20;7.00;;;;;;;8.20;100.00;100623.61;67726;1279;1016374;-62
2023/02/13 11:42:41;;;;;;;21.70;7.00;;;;;;;8.28;100.00;100627.24;67726;1279;1016270;-61
2023/02/13 11:45:43;;;;;;;21.30;6.60;;;;;;;8.28;100.00;100623.41;67740;1279;1016385;-61
2023/02/13 11:48:46;;;;;;;21.80;6.50;;;;;;;8.33;100.00;100624.34;67814;1279;1016958;-61
2023/02/13 11:51:48;;;;;;;20.20;5.90;;;;;;;8.36;100.00;100618.02;67799;1279;1016348;-62
2023/02/13 11:54:50;;;;;;;20.90;6.30;;;;;;;8.38;100.00;100618.30;67739;1279;1016422;-62
2023/02/13 11:57:53;;;;;;;19.10;6.10;;;;;;;8.44;100.00;100617.30;67728;1279;1016339;-61
2023/02/13 12:00:55;;;;;;;21.10;7.20;;;;;;;8.40;100.00;100613.56;67774;1279;1016064;-61
2023/02/13 12:03:58;;;;;;;20.70;6.00;;;;;;;8.31;100.00;100611.14;67766;1279;1016484;-62
2023/02/13 12:07:00;;;;;;;20.40;6.30;;;;;;;8.20;100.00;100610.02;67764;1279;1016835;-60
2023/02/13 12:10:03;;;;;;;19.50;6.80;;;;;;;8.25;100.00;100599.09;67712;1279;1016516;-61
2023/02/13 12:13:05;;;;;;;19.70;6.10;;;;;;;8.41;100.00;100596.98;67691;1279;1016293;-62
2023/02/13 12:16:08;;;;;;;19.50;5.90;;;;;;;8.60;100.00;100590.95;67780;1279;1016282;-61
2023/02/13 12:19:11;;;;;;;20.50;5.70;;;;;;;8.64;100.00;100587.20;67772;1279;1016368;-61
2023/02/13 12:22:13;;;;;;;17.30;5.50;;;;;;;8.68;100.00;100581.88;67720;1279;1016294;-62
2023/02/13 12:25:16;;;;;;;;;;;;;;;8.58;100.00;100584.75;67770;1279;1016478;-62
2023/02/13 12:28:18;;;;;;;18.70;6.30;;;;;;;8.68;100.00;100588.50;67750;1279;1016010;-62
2023/02/13 12:31:21;;;;;;;20.10;6.40;;;;;;;8.76;100.00;100589.36;67697;1279;1016200;-62
2023/02/13 12:34:23;;;;;;;22.20;6.00;;;;;;;8.78;100.00;100587.20;67762;1279;1016349;-62
2023/02/13 12:37:26;;;;;;;;;;;;;;;8.82;100.00;100579.08;67768;1279;1016562;-61
2023/02/13 12:40:28;;;;;;;21.30;6.10;;;;;;;8.77;100.00;100580.94;67709;1279;1016071;-62
2023/02/13 12:43:31;;;;;;;18.20;5.20;;;;;;;8.89;100.00;100576.28;67731;1279;1016511;-62
2023/02/13 12:46:33;;;;;;;19.30;5.60;;;;;;;9.07;100.00;100573.18;67764;1279;1019236;-61
2023/02/13 12:49:36;;;;;;;19.40;5.80;;;;;;;9.16;100.00;100567.20;67754;1279;1016738;-62
2023/02/13 12:52:38;;;;;;;18.30;5.80;;;;;;;9.19;100.00;100568.52;67755;1269;1016403;-62
2023/02/13 12:55:42;;;;;;;20.50;6.50;;;;;;;9.10;100.00;100564.73;67690;1279;1016673;-61
2023/02/13 12:58:44;;;;;;;20.00;6.10;;;;;;;8.82;100.00;100561.13;67818;1279;1016834;-61
2023/02/13 13:01:47;;;;;;;20.20;5.60;;;;;;;8.69;100.00;100565.80;67712;1279;1016290;-61
2023/02/13 13:04:49;;;;;;;20.80;5.90;;;;;;;8.48;100.00;100571.56;67766;1279;1016413;-62
2023/02/13 13:07:52;;;;;;;17.10;4.90;;;;;;;8.34;100.00;100591.90;67780;1279;1016374;-61
2023/02/13 13:10:54;;;;;;;18.30;4.70;;;;;;;7.94;100.00;100590.90;67783;1279;1017298;-61
2023/02/13 13:13:57;;;;;;;18.60;4.80;;;;;;;7.61;100.00;100591.23;67758;1279;1016269;-61
2023/02/13 13:17:00;;;;;;;17.30;5.30;;;;;;;7.40;100.00;100600.02;67748;1279;1016441;-62
2023/02/13 13:20:03;;;;;;;16.80;5.30;;;;;;;7.32;100.00;100596.51;67776;1279;1017330;-61
2023/02/13 13:23:06;;;;;;;15.70;4.80;;;;;;;7.42;100.00;100585.01;67772;1279;1016499;-62
2023/02/13 13:26:08;;;;;;;17.50;5.30;;;;;;;7.45;100.00;100585.80;67822;1279;1016470;-61
2023/02/13 13:29:11;;;;;;;19.80;5.60;;;;;;;7.55;100.00;100577.45;67730;1279;1016044;-62
2023/02/13 13:32:13;;;;;;;16.30;4.70;;;;;;;7.63;100.00;100576.21;67742;1279;1017024;-62
2023/02/13 13:35:15;;;;;;;21.60;5.70;;;;;;;7.66;100.00;100579.83;67729;1279;1016353;-61
2023/02/13 13:38:18;;;;;;;16.90;4.90;;;;;;;7.64;100.00;100580.90;67782;1279;1016321;-62
2023/02/13 13:41:20;;;;;;;20.40;5.30;;;;;;;7.70;100.00;100577.63;67774;1279;1016345;-61
2023/02/13 13:44:25;;;;;;;21.60;6.10;;;;;;;7.64;100.00;100571.86;67773;1279;1016335;-61
2023/02/13 13:47:27;;;;;;;21.40;5.80;;;;;;;7.60;100.00;100569.16;67747;1279;1016220;-63
2023/02/13 13:50:29;;;;;;;19.90;5.60;;;;;;;7.58;100.00;100567.80;67756;1279;1017095;-62
2023/02/13 13:53:32;;;;;;;19.60;5.70;;;;;;;7.57;100.00;100576.88;67732;1279;1016226;-62
2023/02/13 13:56:34;;;;;;;18.90;5.50;;;;;;;7.56;100.00;100580.02;67746;1279;1016768;-61
2023/02/13 13:59:37;;;;;;;22.30;5.80;;;;;;;7.50;100.00;100569.54;67789;1279;1016878;-61
2023/02/13 14:02:39;;;;;;;20.70;6.00;;;;;;;7.53;100.00;100570.17;67769;1279;1016442;-62
2023/02/13 14:05:42;;;;;;;19.20;5.40;;;;;;;7.45;100.00;100557.27;67728;1279;1018847;-62
2023/02/13 14:08:44;;;;;;;20.70;5.80;;;;;;;7.39;100.00;100558.78;67723;1279;1017445;-61
2023/02/13 14:11:46;;;;;;;18.40;5.70;;;;;;;7.28;100.00;100563.53;67743;1279;1016259;-61
2023/02/13 14:14:49;;;;;;;17.90;5.50;;;;;;;7.23;100.00;100561.73;67776;1279;1016488;-62
2023/02/13 14:17:51;;;;;;;16.50;4.90;;;;;;;7.30;100.00;100551.66;67744;1279;1016152;-62
2023/02/13 14:20:54;;;;;;;22.10;5.70;;;;;;;7.32;100.00;100556.66;67712;1279;1016476;-61
2023/02/13 14:23:59;;;;;;;18.20;5.70;;;;;;;7.37;100.00;100545.44;67749;1279;1016057;-61
2023/02/13 14:27:02;;;;;;;20.20;5.50;;;;;;;7.25;100.00;100539.39;67693;1279;1016626;-61